RYR3PY EFOU-EDDF
Flight info
| Callsign | RYR3PY |
|---|---|
| Flight time | N/A |
| Altitude | 34000 |
| Route | IXONO DCT SALLO DCT POVEL DCT RIMET/N0443F310 T157 KOKEB/N0390F230 T157 KERAX KERAX5D |
| Aircraft | B738/M-SDE2E3FGHIRWXY/LB1 |
Departure
| Time | 2026-05-08 15:31 |
|---|---|
| Airport | Oulu Airport (EFOU) |
Arrival
| Time | N/A |
|---|---|
| Airport | Frankfurt Main Airport (EDDF) |
| Time | Latitude | Longitude | Altitude | Speed | Heading |
|---|---|---|---|---|---|
| 2026-05-08 14:58 | 64.92805 | 25.37361 | 44 ft | 0 kts | 32° |
| 2026-05-08 15:25 | 64.92802 | 25.37357 | 44 ft | 3 kts | 33° |
| 2026-05-08 15:25 | 64.92787 | 25.37313 | 43 ft | 4 kts | 75° |
| 2026-05-08 15:25 | 64.92782 | 25.37273 | 42 ft | 1 kts | 66° |
| 2026-05-08 15:26 | 64.92781 | 25.37267 | 42 ft | 0 kts | 66° |
| 2026-05-08 15:29 | 64.92781 | 25.37268 | 42 ft | 0 kts | 66° |
| 2026-05-08 15:29 | 64.92780 | 25.37274 | 43 ft | 1 kts | 95° |
| 2026-05-08 15:29 | 64.92772 | 25.37300 | 42 ft | 5 kts | 123° |
| 2026-05-08 15:29 | 64.92736 | 25.37402 | 44 ft | 10 kts | 145° |
| 2026-05-08 15:30 | 64.92684 | 25.37510 | 42 ft | 12 kts | 126° |
| 2026-05-08 15:30 | 64.92626 | 25.37711 | 43 ft | 18 kts | 124° |
| 2026-05-08 15:30 | 64.92544 | 25.37938 | 42 ft | 20 kts | 168° |
| 2026-05-08 15:30 | 64.92464 | 25.37710 | 41 ft | 21 kts | 281° |
| 2026-05-08 15:31 | 64.92560 | 25.37250 | 43 ft | 61 kts | 298° |
| 2026-05-08 15:31 | 64.92913 | 25.35831 | 48 ft | 137 kts | 302° |
| 2026-05-08 15:31 | 64.93515 | 25.33546 | 362 ft | 177 kts | 302° |
| 2026-05-08 15:31 | 64.94213 | 25.30915 | 1116 ft | 201 kts | 300° |
| 2026-05-08 15:32 | 64.94982 | 25.28060 | 1994 ft | 214 kts | 300° |
| 2026-05-08 15:32 | 64.95833 | 25.24863 | 2553 ft | 243 kts | 299° |
| 2026-05-08 15:32 | 64.96651 | 25.21198 | 3391 ft | 264 kts | 291° |
| 2026-05-08 15:32 | 64.97189 | 25.16836 | 3752 ft | 302 kts | 275° |
| 2026-05-08 15:33 | 64.96949 | 25.11488 | 3834 ft | 346 kts | 252° |
| 2026-05-08 15:33 | 64.95839 | 25.06401 | 4906 ft | 345 kts | 233° |
| 2026-05-08 15:33 | 64.94071 | 25.02917 | 6623 ft | 325 kts | 207° |
| 2026-05-08 15:33 | 64.91994 | 25.01436 | 8087 ft | 308 kts | 194° |
| 2026-05-08 15:34 | 64.89928 | 25.00905 | 9476 ft | 287 kts | 182° |
| 2026-05-08 15:34 | 64.87977 | 25.00961 | 10543 ft | 278 kts | 182° |
| 2026-05-08 15:34 | 64.86055 | 25.00830 | 11341 ft | 275 kts | 189° |
| 2026-05-08 15:34 | 64.84166 | 25.00138 | 11956 ft | 279 kts | 197° |
| 2026-05-08 15:35 | 64.82236 | 24.98834 | 12126 ft | 299 kts | 204° |
| 2026-05-08 15:35 | 64.80240 | 24.96971 | 12316 ft | 318 kts | 208° |
| 2026-05-08 15:35 | 64.78185 | 24.94664 | 12505 ft | 338 kts | 211° |
| 2026-05-08 15:35 | 64.76057 | 24.91995 | 12693 ft | 356 kts | 213° |
| 2026-05-08 15:36 | 64.73880 | 24.89086 | 13221 ft | 363 kts | 215° |
| 2026-05-08 15:36 | 64.71692 | 24.86066 | 13880 ft | 367 kts | 216° |
| 2026-05-08 15:36 | 64.69611 | 24.83148 | 14472 ft | 370 kts | 217° |
| 2026-05-08 15:36 | 64.67397 | 24.80026 | 15037 ft | 375 kts | 217° |
| 2026-05-08 15:37 | 64.65152 | 24.76858 | 15609 ft | 378 kts | 217° |
| 2026-05-08 15:37 | 64.62889 | 24.73672 | 16211 ft | 382 kts | 217° |
| 2026-05-08 15:37 | 64.60604 | 24.70463 | 16782 ft | 386 kts | 217° |
| 2026-05-08 15:37 | 64.58311 | 24.67184 | 17348 ft | 388 kts | 219° |
| 2026-05-08 15:38 | 64.56069 | 24.63642 | 17923 ft | 390 kts | 221° |
| 2026-05-08 15:38 | 64.53851 | 24.59954 | 18486 ft | 393 kts | 223° |
| 2026-05-08 15:38 | 64.51627 | 24.56203 | 18992 ft | 397 kts | 223° |
| 2026-05-08 15:38 | 64.49386 | 24.52430 | 19550 ft | 398 kts | 223° |
| 2026-05-08 15:39 | 64.47139 | 24.48675 | 20120 ft | 399 kts | 223° |
| 2026-05-08 15:39 | 64.44878 | 24.44924 | 20642 ft | 401 kts | 223° |
| 2026-05-08 15:39 | 64.42599 | 24.41165 | 21152 ft | 403 kts | 223° |
| 2026-05-08 15:39 | 64.40335 | 24.37450 | 21655 ft | 405 kts | 223° |
| 2026-05-08 15:40 | 64.38026 | 24.33678 | 22153 ft | 407 kts | 223° |
| 2026-05-08 15:40 | 64.35706 | 24.29899 | 22653 ft | 409 kts | 223° |
| 2026-05-08 15:40 | 64.33374 | 24.26109 | 23128 ft | 411 kts | 223° |
| 2026-05-08 15:40 | 64.31027 | 24.22306 | 23601 ft | 413 kts | 223° |
| 2026-05-08 15:41 | 64.28670 | 24.18494 | 24029 ft | 415 kts | 223° |
| 2026-05-08 15:41 | 64.26297 | 24.14665 | 24394 ft | 417 kts | 223° |
| 2026-05-08 15:41 | 64.23918 | 24.10835 | 24777 ft | 418 kts | 223° |
| 2026-05-08 15:41 | 64.21527 | 24.06994 | 25153 ft | 420 kts | 223° |
| 2026-05-08 15:42 | 64.19125 | 24.03142 | 25512 ft | 422 kts | 223° |
| 2026-05-08 15:42 | 64.16714 | 23.99285 | 25861 ft | 423 kts | 223° |
| 2026-05-08 15:42 | 64.14293 | 23.95419 | 26208 ft | 425 kts | 223° |
| 2026-05-08 15:42 | 64.11891 | 23.91593 | 26546 ft | 426 kts | 223° |
| 2026-05-08 15:43 | 64.09451 | 23.87714 | 26879 ft | 428 kts | 224° |
| 2026-05-08 15:43 | 64.06999 | 23.83824 | 27200 ft | 430 kts | 224° |
| 2026-05-08 15:43 | 64.04536 | 23.79925 | 27523 ft | 431 kts | 224° |
| 2026-05-08 15:43 | 64.02068 | 23.76028 | 27833 ft | 433 kts | 224° |
| 2026-05-08 15:44 | 63.99587 | 23.72118 | 28152 ft | 434 kts | 224° |
| 2026-05-08 15:44 | 63.97096 | 23.68202 | 28456 ft | 436 kts | 224° |
| 2026-05-08 15:44 | 63.94593 | 23.64275 | 28745 ft | 437 kts | 224° |
| 2026-05-08 15:44 | 63.92084 | 23.60347 | 29032 ft | 439 kts | 224° |
| 2026-05-08 15:45 | 63.89566 | 23.56416 | 29399 ft | 438 kts | 224° |
| 2026-05-08 15:45 | 63.87062 | 23.52520 | 29878 ft | 435 kts | 224° |
| 2026-05-08 15:45 | 63.84572 | 23.48658 | 30349 ft | 433 kts | 224° |
| 2026-05-08 15:45 | 63.82090 | 23.44812 | 30683 ft | 432 kts | 224° |
| 2026-05-08 15:46 | 63.79615 | 23.40980 | 30965 ft | 431 kts | 224° |
| 2026-05-08 15:46 | 63.77139 | 23.37153 | 31268 ft | 430 kts | 224° |
| 2026-05-08 15:46 | 63.74670 | 23.33347 | 31606 ft | 429 kts | 224° |
| 2026-05-08 15:46 | 63.72212 | 23.29566 | 31928 ft | 427 kts | 224° |
| 2026-05-08 15:47 | 63.69752 | 23.25789 | 32217 ft | 427 kts | 223° |
| 2026-05-08 15:47 | 63.67300 | 23.22032 | 32508 ft | 426 kts | 223° |
| 2026-05-08 15:47 | 63.64852 | 23.18290 | 32807 ft | 424 kts | 223° |
| 2026-05-08 15:47 | 63.62412 | 23.14568 | 33104 ft | 423 kts | 223° |
| 2026-05-08 15:48 | 63.57543 | 23.07165 | 33658 ft | 422 kts | 223° |
| 2026-05-08 15:48 | 63.55117 | 23.03486 | 33934 ft | 421 kts | 223° |
| 2026-05-08 15:48 | 63.52693 | 22.99820 | 34214 ft | 420 kts | 223° |
| 2026-05-08 15:49 | 63.50272 | 22.96167 | 34458 ft | 419 kts | 223° |
| 2026-05-08 15:49 | 63.47858 | 22.92530 | 34619 ft | 419 kts | 223° |
| 2026-05-08 15:49 | 63.45426 | 22.88869 | 34745 ft | 421 kts | 222° |
| 2026-05-08 15:49 | 63.42996 | 22.85221 | 34897 ft | 421 kts | 222° |
| 2026-05-08 15:50 | 63.40561 | 22.81575 | 35079 ft | 421 kts | 222° |
| 2026-05-08 15:50 | 63.38121 | 22.77930 | 35231 ft | 422 kts | 221° |
| 2026-05-08 15:50 | 63.35681 | 22.74293 | 35389 ft | 422 kts | 221° |
| 2026-05-08 15:50 | 63.33234 | 22.70652 | 35526 ft | 423 kts | 221° |
| 2026-05-08 15:51 | 63.30785 | 22.67017 | 35677 ft | 423 kts | 221° |
| 2026-05-08 15:51 | 63.28364 | 22.63431 | 35827 ft | 424 kts | 221° |
| 2026-05-08 15:51 | 63.25911 | 22.59805 | 35978 ft | 424 kts | 220° |
| 2026-05-08 15:51 | 63.23453 | 22.56179 | 36134 ft | 424 kts | 220° |
| 2026-05-08 15:52 | 63.20996 | 22.52562 | 36278 ft | 424 kts | 220° |
| 2026-05-08 15:52 | 63.16054 | 22.45306 | 36336 ft | 427 kts | 220° |
| 2026-05-08 15:53 | 63.11112 | 22.38076 | 36333 ft | 424 kts | 220° |
| 2026-05-08 15:53 | 63.06205 | 22.30916 | 36336 ft | 421 kts | 220° |
| 2026-05-08 15:54 | 63.01324 | 22.23839 | 36337 ft | 419 kts | 220° |
| 2026-05-08 15:54 | 62.96460 | 22.16816 | 36340 ft | 417 kts | 220° |
| 2026-05-08 15:55 | 62.91605 | 22.09834 | 36344 ft | 417 kts | 219° |
| 2026-05-08 15:55 | 62.84344 | 21.99443 | 36342 ft | 417 kts | 219° |
| 2026-05-08 15:56 | 62.79510 | 21.92568 | 36339 ft | 412 kts | 219° |
| 2026-05-08 15:56 | 62.74704 | 21.85750 | 36353 ft | 414 kts | 219° |
| 2026-05-08 15:57 | 62.69840 | 21.78870 | 36361 ft | 420 kts | 219° |
| 2026-05-08 15:57 | 62.64899 | 21.71915 | 36358 ft | 425 kts | 219° |
| 2026-05-08 15:58 | 62.59889 | 21.64893 | 36355 ft | 431 kts | 218° |
| 2026-05-08 15:58 | 62.54821 | 21.57824 | 36351 ft | 435 kts | 218° |
| 2026-05-08 15:59 | 62.49716 | 21.50734 | 36353 ft | 437 kts | 218° |
| 2026-05-08 15:59 | 62.44618 | 21.43682 | 36352 ft | 438 kts | 218° |
| 2026-05-08 16:00 | 62.39473 | 21.36595 | 36352 ft | 439 kts | 218° |
| 2026-05-08 16:00 | 62.34326 | 21.29533 | 36354 ft | 438 kts | 218° |
| 2026-05-08 16:01 | 62.29182 | 21.22503 | 36352 ft | 437 kts | 217° |
| 2026-05-08 16:01 | 62.24042 | 21.15506 | 36353 ft | 437 kts | 217° |
| 2026-05-08 16:02 | 62.18912 | 21.08554 | 36333 ft | 433 kts | 217° |
| 2026-05-08 16:02 | 62.14684 | 21.02845 | 36344 ft | 432 kts | 217° |
| 2026-05-08 16:03 | 62.09599 | 20.96000 | 36358 ft | 432 kts | 217° |
| 2026-05-08 16:03 | 62.04507 | 20.89172 | 36359 ft | 432 kts | 217° |
| 2026-05-08 16:04 | 61.99409 | 20.82366 | 36355 ft | 432 kts | 217° |
| 2026-05-08 16:04 | 61.94309 | 20.75585 | 36355 ft | 433 kts | 217° |
| 2026-05-08 16:05 | 61.89200 | 20.68819 | 36352 ft | 433 kts | 217° |
| 2026-05-08 16:05 | 61.84085 | 20.62073 | 36355 ft | 433 kts | 216° |
| 2026-05-08 16:06 | 61.78965 | 20.55346 | 36354 ft | 433 kts | 216° |
| 2026-05-08 16:06 | 61.73838 | 20.48636 | 36355 ft | 433 kts | 216° |
| 2026-05-08 16:07 | 61.68707 | 20.41950 | 36352 ft | 434 kts | 216° |
| 2026-05-08 16:07 | 61.63605 | 20.35325 | 36352 ft | 434 kts | 216° |
| 2026-05-08 16:08 | 61.58466 | 20.28680 | 36357 ft | 434 kts | 216° |
| 2026-05-08 16:08 | 61.53318 | 20.22049 | 36346 ft | 434 kts | 216° |
| 2026-05-08 16:09 | 61.48165 | 20.15438 | 36351 ft | 434 kts | 215° |
| 2026-05-08 16:09 | 61.43010 | 20.08850 | 36352 ft | 434 kts | 215° |
| 2026-05-08 16:10 | 61.37851 | 20.02282 | 36350 ft | 434 kts | 215° |
| 2026-05-08 16:10 | 61.32687 | 19.95735 | 36345 ft | 434 kts | 215° |
| 2026-05-08 16:11 | 61.27522 | 19.89211 | 36347 ft | 435 kts | 215° |
| 2026-05-08 16:11 | 61.22349 | 19.82702 | 36352 ft | 435 kts | 214° |
| 2026-05-08 16:12 | 61.17172 | 19.76215 | 36346 ft | 435 kts | 214° |
| 2026-05-08 16:12 | 61.12019 | 19.69782 | 36348 ft | 435 kts | 214° |
| 2026-05-08 16:13 | 61.06828 | 19.63326 | 36344 ft | 435 kts | 214° |
| 2026-05-08 16:13 | 61.01631 | 19.56888 | 36342 ft | 435 kts | 214° |
| 2026-05-08 16:14 | 60.96433 | 19.50473 | 36357 ft | 436 kts | 214° |
| 2026-05-08 16:14 | 60.91902 | 19.44902 | 36341 ft | 436 kts | 214° |
| 2026-05-08 16:15 | 60.86686 | 19.38512 | 36348 ft | 436 kts | 214° |
| 2026-05-08 16:15 | 60.81503 | 19.32186 | 36343 ft | 436 kts | 214° |
| 2026-05-08 16:16 | 60.76285 | 19.25841 | 36350 ft | 436 kts | 213° |
| 2026-05-08 16:16 | 60.71064 | 19.19517 | 36349 ft | 437 kts | 213° |
| 2026-05-08 16:17 | 60.65832 | 19.13206 | 36353 ft | 437 kts | 213° |
| 2026-05-08 16:17 | 60.60589 | 19.06904 | 36349 ft | 437 kts | 213° |
| 2026-05-08 16:18 | 60.55344 | 19.00624 | 36351 ft | 438 kts | 213° |
| 2026-05-08 16:18 | 60.50084 | 18.94349 | 36348 ft | 438 kts | 213° |
| 2026-05-08 16:19 | 60.44856 | 18.88137 | 36340 ft | 438 kts | 213° |
| 2026-05-08 16:19 | 60.39584 | 18.81895 | 36348 ft | 439 kts | 213° |
| 2026-05-08 16:20 | 60.34313 | 18.75679 | 36340 ft | 439 kts | 213° |
| 2026-05-08 16:20 | 60.29030 | 18.69472 | 36345 ft | 439 kts | 212° |
| 2026-05-08 16:21 | 60.23742 | 18.63283 | 36338 ft | 440 kts | 212° |
| 2026-05-08 16:21 | 60.18446 | 18.57107 | 36342 ft | 440 kts | 212° |
| 2026-05-08 16:22 | 60.13147 | 18.50952 | 36339 ft | 440 kts | 212° |
| 2026-05-08 16:22 | 60.07840 | 18.44810 | 36336 ft | 441 kts | 212° |
| 2026-05-08 16:23 | 60.02533 | 18.38691 | 36341 ft | 441 kts | 212° |
| 2026-05-08 16:23 | 59.97213 | 18.32581 | 36345 ft | 441 kts | 212° |
| 2026-05-08 16:24 | 59.91888 | 18.26487 | 36338 ft | 441 kts | 212° |
| 2026-05-08 16:24 | 59.86557 | 18.20410 | 36338 ft | 442 kts | 212° |
| 2026-05-08 16:25 | 59.81222 | 18.14350 | 36355 ft | 442 kts | 212° |
| 2026-05-08 16:25 | 59.75878 | 18.08301 | 36355 ft | 442 kts | 212° |
| 2026-05-08 16:26 | 59.70560 | 18.02306 | 36343 ft | 442 kts | 212° |
| 2026-05-08 16:26 | 59.65207 | 17.96293 | 36341 ft | 443 kts | 212° |
| 2026-05-08 16:27 | 59.59847 | 17.90295 | 36355 ft | 443 kts | 212° |
| 2026-05-08 16:27 | 59.54471 | 17.84301 | 36352 ft | 443 kts | 212° |
| 2026-05-08 16:28 | 59.49092 | 17.78326 | 36358 ft | 444 kts | 211° |
| 2026-05-08 16:28 | 59.43707 | 17.72365 | 36369 ft | 444 kts | 211° |
| 2026-05-08 16:29 | 59.38312 | 17.66417 | 36362 ft | 445 kts | 211° |
| 2026-05-08 16:29 | 59.32900 | 17.60471 | 36358 ft | 446 kts | 211° |
| 2026-05-08 16:30 | 59.27494 | 17.54522 | 36361 ft | 446 kts | 212° |
| 2026-05-08 16:30 | 59.22159 | 17.48347 | 36350 ft | 446 kts | 213° |
| 2026-05-08 16:31 | 59.16873 | 17.42155 | 36352 ft | 446 kts | 213° |
| 2026-05-08 16:31 | 59.11533 | 17.35956 | 36353 ft | 447 kts | 213° |
| 2026-05-08 16:32 | 59.06174 | 17.29789 | 36345 ft | 447 kts | 213° |
| 2026-05-08 16:32 | 59.00810 | 17.23651 | 36347 ft | 448 kts | 212° |
| 2026-05-08 16:33 | 58.95438 | 17.17528 | 36340 ft | 448 kts | 213° |
| 2026-05-08 16:33 | 58.90060 | 17.11419 | 36345 ft | 448 kts | 212° |
| 2026-05-08 16:34 | 58.84681 | 17.05331 | 36341 ft | 448 kts | 212° |
| 2026-05-08 16:34 | 58.79295 | 16.99257 | 36345 ft | 448 kts | 212° |
| 2026-05-08 16:35 | 58.73907 | 16.93203 | 36344 ft | 448 kts | 212° |
| 2026-05-08 16:35 | 58.68550 | 16.87205 | 36345 ft | 448 kts | 212° |
| 2026-05-08 16:36 | 58.63120 | 16.81147 | 36342 ft | 449 kts | 212° |
| 2026-05-08 16:36 | 58.57751 | 16.75180 | 36344 ft | 449 kts | 212° |
| 2026-05-08 16:37 | 58.52345 | 16.69192 | 36349 ft | 449 kts | 212° |
| 2026-05-08 16:37 | 58.46932 | 16.63218 | 36348 ft | 449 kts | 212° |
| 2026-05-08 16:38 | 58.41510 | 16.57256 | 36344 ft | 450 kts | 212° |
| 2026-05-08 16:38 | 58.36083 | 16.51310 | 36347 ft | 450 kts | 212° |
| 2026-05-08 16:39 | 58.30655 | 16.45384 | 36344 ft | 450 kts | 212° |
| 2026-05-08 16:39 | 58.25217 | 16.39468 | 36334 ft | 450 kts | 212° |
| 2026-05-08 16:40 | 58.19776 | 16.33570 | 36333 ft | 450 kts | 212° |
| 2026-05-08 16:40 | 58.14329 | 16.27686 | 36326 ft | 451 kts | 212° |
| 2026-05-08 16:41 | 58.08879 | 16.21820 | 36330 ft | 451 kts | 212° |
| 2026-05-08 16:42 | 58.00695 | 16.13051 | 36323 ft | 451 kts | 212° |
| 2026-05-08 16:42 | 57.95228 | 16.07219 | 36321 ft | 451 kts | 212° |
| 2026-05-08 16:43 | 57.89759 | 16.01405 | 36320 ft | 452 kts | 212° |
| 2026-05-08 16:43 | 57.84283 | 15.95604 | 36322 ft | 452 kts | 212° |
| 2026-05-08 16:44 | 57.78839 | 15.89858 | 36318 ft | 452 kts | 212° |
| 2026-05-08 16:44 | 57.73349 | 15.84082 | 36313 ft | 453 kts | 211° |
| 2026-05-08 16:45 | 57.67856 | 15.78325 | 36310 ft | 453 kts | 211° |
| 2026-05-08 16:45 | 57.62351 | 15.72575 | 36308 ft | 453 kts | 211° |
| 2026-05-08 16:46 | 57.56842 | 15.66841 | 36309 ft | 453 kts | 211° |
| 2026-05-08 16:46 | 57.51330 | 15.61123 | 36305 ft | 454 kts | 211° |
| 2026-05-08 16:47 | 57.45810 | 15.55418 | 36301 ft | 454 kts | 211° |
| 2026-05-08 16:47 | 57.40290 | 15.49731 | 36299 ft | 454 kts | 211° |
| 2026-05-08 16:48 | 57.34760 | 15.44055 | 36299 ft | 454 kts | 211° |
| 2026-05-08 16:48 | 57.29225 | 15.38393 | 36298 ft | 454 kts | 211° |
| 2026-05-08 16:49 | 57.23723 | 15.32785 | 36296 ft | 455 kts | 211° |
| 2026-05-08 16:49 | 57.18183 | 15.27157 | 36294 ft | 455 kts | 211° |
| 2026-05-08 16:50 | 57.12638 | 15.21543 | 36287 ft | 455 kts | 211° |
| 2026-05-08 16:50 | 57.07089 | 15.15945 | 36280 ft | 455 kts | 210° |
| 2026-05-08 16:51 | 57.01534 | 15.10360 | 36277 ft | 455 kts | 210° |
| 2026-05-08 16:51 | 56.95970 | 15.04785 | 36273 ft | 455 kts | 210° |
| 2026-05-08 16:52 | 56.91345 | 15.00165 | 36273 ft | 456 kts | 210° |
| 2026-05-08 16:52 | 56.85777 | 14.94622 | 36267 ft | 456 kts | 210° |
| 2026-05-08 16:53 | 56.77409 | 14.86325 | 36270 ft | 456 kts | 210° |
| 2026-05-08 16:53 | 56.71825 | 14.80812 | 36274 ft | 457 kts | 210° |
| 2026-05-08 16:54 | 56.66246 | 14.75324 | 36261 ft | 452 kts | 210° |
| 2026-05-08 16:54 | 56.60747 | 14.69934 | 36271 ft | 447 kts | 210° |
| 2026-05-08 16:55 | 56.55294 | 14.64603 | 36268 ft | 444 kts | 210° |
| 2026-05-08 16:55 | 56.49876 | 14.59326 | 36269 ft | 440 kts | 210° |
| 2026-05-08 16:56 | 56.44498 | 14.54104 | 36268 ft | 438 kts | 210° |
| 2026-05-08 16:56 | 56.39139 | 14.48917 | 36274 ft | 435 kts | 210° |
| 2026-05-08 16:57 | 56.33847 | 14.43812 | 36270 ft | 433 kts | 210° |
| 2026-05-08 16:57 | 56.28548 | 14.38715 | 36268 ft | 431 kts | 210° |
| 2026-05-08 16:58 | 56.23273 | 14.33658 | 36276 ft | 429 kts | 210° |
| 2026-05-08 16:58 | 56.18010 | 14.28629 | 36279 ft | 427 kts | 210° |
| 2026-05-08 16:59 | 56.12769 | 14.23636 | 36281 ft | 426 kts | 210° |
| 2026-05-08 16:59 | 56.07544 | 14.18674 | 36287 ft | 424 kts | 209° |
| 2026-05-08 17:00 | 56.02337 | 14.13743 | 36292 ft | 423 kts | 209° |
| 2026-05-08 17:00 | 55.97141 | 14.08839 | 36293 ft | 422 kts | 209° |
| 2026-05-08 17:01 | 55.91962 | 14.03967 | 36293 ft | 420 kts | 209° |
| 2026-05-08 17:01 | 55.86791 | 13.99115 | 36292 ft | 419 kts | 209° |
| 2026-05-08 17:02 | 55.81632 | 13.94290 | 36286 ft | 418 kts | 209° |
| 2026-05-08 17:02 | 55.76484 | 13.89489 | 36288 ft | 417 kts | 209° |
| 2026-05-08 17:03 | 55.71381 | 13.84745 | 36284 ft | 417 kts | 209° |
| 2026-05-08 17:03 | 55.66246 | 13.79986 | 36268 ft | 416 kts | 209° |
| 2026-05-08 17:04 | 55.61125 | 13.75253 | 36271 ft | 415 kts | 209° |
| 2026-05-08 17:04 | 55.56001 | 13.70531 | 36267 ft | 415 kts | 209° |
| 2026-05-08 17:05 | 55.50883 | 13.65828 | 36269 ft | 414 kts | 209° |
| 2026-05-08 17:05 | 55.45778 | 13.61154 | 36264 ft | 413 kts | 209° |
| 2026-05-08 17:06 | 55.40676 | 13.56493 | 36268 ft | 413 kts | 208° |
| 2026-05-08 17:06 | 55.35580 | 13.51852 | 36264 ft | 412 kts | 208° |
| 2026-05-08 17:07 | 55.30484 | 13.47225 | 36266 ft | 411 kts | 208° |
| 2026-05-08 17:07 | 55.25400 | 13.42623 | 36258 ft | 411 kts | 208° |
| 2026-05-08 17:08 | 55.20321 | 13.38037 | 36262 ft | 410 kts | 208° |
| 2026-05-08 17:08 | 55.15247 | 13.33470 | 36265 ft | 410 kts | 208° |
| 2026-05-08 17:09 | 55.10175 | 13.28918 | 36262 ft | 409 kts | 208° |
| 2026-05-08 17:09 | 55.05143 | 13.24414 | 36257 ft | 409 kts | 208° |
| 2026-05-08 17:10 | 55.00086 | 13.19901 | 36255 ft | 408 kts | 208° |
| 2026-05-08 17:10 | 54.95026 | 13.15397 | 36258 ft | 408 kts | 208° |
| 2026-05-08 17:11 | 54.89975 | 13.10915 | 36257 ft | 407 kts | 208° |
| 2026-05-08 17:11 | 54.84925 | 13.06447 | 36251 ft | 407 kts | 208° |
| 2026-05-08 17:12 | 54.79875 | 13.01991 | 36253 ft | 407 kts | 208° |
| 2026-05-08 17:12 | 54.74834 | 12.97555 | 36253 ft | 406 kts | 208° |
| 2026-05-08 17:13 | 54.69794 | 12.93134 | 36241 ft | 406 kts | 208° |
| 2026-05-08 17:13 | 54.64751 | 12.88721 | 36241 ft | 406 kts | 208° |
| 2026-05-08 17:14 | 54.59747 | 12.84355 | 36235 ft | 405 kts | 208° |
| 2026-05-08 17:14 | 54.54682 | 12.79947 | 36232 ft | 405 kts | 208° |
| 2026-05-08 17:15 | 54.49651 | 12.75583 | 36235 ft | 405 kts | 208° |
| 2026-05-08 17:15 | 54.44655 | 12.71259 | 36234 ft | 405 kts | 208° |
| 2026-05-08 17:16 | 54.39624 | 12.66919 | 36230 ft | 404 kts | 208° |
| 2026-05-08 17:16 | 54.34597 | 12.62593 | 36221 ft | 404 kts | 208° |
| 2026-05-08 17:17 | 54.29536 | 12.58250 | 36217 ft | 404 kts | 208° |
| 2026-05-08 17:17 | 54.24543 | 12.53977 | 36219 ft | 404 kts | 208° |
| 2026-05-08 17:18 | 54.19515 | 12.49686 | 36203 ft | 404 kts | 208° |
| 2026-05-08 17:18 | 54.14482 | 12.45402 | 36193 ft | 404 kts | 208° |
| 2026-05-08 17:19 | 54.09453 | 12.41133 | 36195 ft | 404 kts | 208° |
| 2026-05-08 17:19 | 54.04426 | 12.36878 | 36188 ft | 403 kts | 208° |
| 2026-05-08 17:20 | 53.99397 | 12.32632 | 36187 ft | 403 kts | 208° |
| 2026-05-08 17:20 | 53.94372 | 12.28402 | 36186 ft | 403 kts | 208° |
| 2026-05-08 17:21 | 53.89344 | 12.24181 | 36188 ft | 403 kts | 208° |
| 2026-05-08 17:21 | 53.84318 | 12.19972 | 36179 ft | 403 kts | 208° |
| 2026-05-08 17:22 | 53.79292 | 12.15774 | 36186 ft | 403 kts | 208° |
| 2026-05-08 17:22 | 53.74261 | 12.11585 | 36186 ft | 403 kts | 208° |
| 2026-05-08 17:23 | 53.69236 | 12.07411 | 36180 ft | 403 kts | 208° |
| 2026-05-08 17:23 | 53.64238 | 12.03270 | 36180 ft | 403 kts | 208° |
| 2026-05-08 17:24 | 53.59213 | 11.99118 | 36181 ft | 403 kts | 207° |
| 2026-05-08 17:24 | 53.54181 | 11.94971 | 36174 ft | 403 kts | 207° |
| 2026-05-08 17:25 | 53.49150 | 11.90837 | 36174 ft | 402 kts | 207° |
| 2026-05-08 17:25 | 53.44112 | 11.86708 | 36175 ft | 403 kts | 207° |
| 2026-05-08 17:26 | 53.39077 | 11.82591 | 36173 ft | 403 kts | 207° |
| 2026-05-08 17:26 | 53.34036 | 11.78481 | 36171 ft | 403 kts | 207° |
| 2026-05-08 17:27 | 53.28997 | 11.74384 | 36173 ft | 402 kts | 207° |
| 2026-05-08 17:27 | 53.23957 | 11.70297 | 36167 ft | 403 kts | 207° |
| 2026-05-08 17:28 | 53.18918 | 11.66220 | 36171 ft | 402 kts | 207° |
| 2026-05-08 17:28 | 53.13880 | 11.62159 | 36154 ft | 401 kts | 208° |
| 2026-05-08 17:29 | 53.08858 | 11.58117 | 36164 ft | 401 kts | 208° |
| 2026-05-08 17:29 | 53.03869 | 11.54112 | 36169 ft | 401 kts | 208° |
| 2026-05-08 17:30 | 52.98848 | 11.50092 | 36167 ft | 401 kts | 208° |
| 2026-05-08 17:30 | 52.93824 | 11.46080 | 36166 ft | 401 kts | 208° |
| 2026-05-08 17:31 | 52.88799 | 11.42078 | 36166 ft | 401 kts | 208° |
| 2026-05-08 17:31 | 52.83746 | 11.38064 | 36173 ft | 407 kts | 208° |
| 2026-05-08 17:32 | 52.78586 | 11.33974 | 36180 ft | 415 kts | 208° |
| 2026-05-08 17:32 | 52.73320 | 11.29812 | 36180 ft | 423 kts | 208° |
| 2026-05-08 17:33 | 52.67953 | 11.25584 | 36184 ft | 431 kts | 208° |
| 2026-05-08 17:33 | 52.62491 | 11.21292 | 36182 ft | 439 kts | 208° |
| 2026-05-08 17:34 | 52.56975 | 11.16970 | 36177 ft | 445 kts | 208° |
| 2026-05-08 17:34 | 52.51336 | 11.12566 | 36180 ft | 452 kts | 208° |
| 2026-05-08 17:35 | 52.45630 | 11.08121 | 36176 ft | 456 kts | 208° |
| 2026-05-08 17:35 | 52.39881 | 11.03656 | 36176 ft | 458 kts | 208° |
| 2026-05-08 17:36 | 52.34114 | 10.99191 | 36173 ft | 459 kts | 208° |
| 2026-05-08 17:36 | 52.28335 | 10.94728 | 36178 ft | 459 kts | 208° |
| 2026-05-08 17:37 | 52.22560 | 10.90282 | 36178 ft | 458 kts | 208° |
| 2026-05-08 17:37 | 52.16796 | 10.85857 | 36173 ft | 457 kts | 208° |
| 2026-05-08 17:38 | 52.11044 | 10.81443 | 36175 ft | 456 kts | 208° |
| 2026-05-08 17:38 | 52.05328 | 10.76984 | 36183 ft | 455 kts | 208° |
| 2026-05-08 17:39 | 51.99628 | 10.72530 | 36164 ft | 454 kts | 208° |
| 2026-05-08 17:39 | 51.93936 | 10.68104 | 36160 ft | 454 kts | 208° |
| 2026-05-08 17:40 | 51.89209 | 10.64445 | 36164 ft | 453 kts | 208° |
| 2026-05-08 17:40 | 51.83513 | 10.60049 | 36166 ft | 453 kts | 208° |
| 2026-05-08 17:41 | 51.77823 | 10.55669 | 36167 ft | 453 kts | 208° |
| 2026-05-08 17:41 | 51.72133 | 10.51302 | 36160 ft | 452 kts | 208° |
| 2026-05-08 17:42 | 51.66449 | 10.46952 | 36157 ft | 452 kts | 208° |
| 2026-05-08 17:42 | 51.60763 | 10.42611 | 36166 ft | 452 kts | 208° |
| 2026-05-08 17:43 | 51.55115 | 10.38313 | 36164 ft | 452 kts | 207° |
| 2026-05-08 17:43 | 51.49425 | 10.33994 | 36161 ft | 452 kts | 207° |
| 2026-05-08 17:44 | 51.43741 | 10.29693 | 36161 ft | 452 kts | 207° |
| 2026-05-08 17:44 | 51.38051 | 10.25397 | 36160 ft | 452 kts | 207° |
| 2026-05-08 17:45 | 51.32087 | 10.22194 | 36163 ft | 456 kts | 193° |
| 2026-05-08 17:45 | 51.25726 | 10.21624 | 36159 ft | 460 kts | 182° |
| 2026-05-08 17:46 | 51.19321 | 10.21671 | 36153 ft | 460 kts | 183° |
| 2026-05-08 17:46 | 51.12921 | 10.21578 | 36149 ft | 460 kts | 184° |
| 2026-05-08 17:47 | 51.06522 | 10.21444 | 36150 ft | 460 kts | 183° |
| 2026-05-08 17:47 | 51.00164 | 10.21318 | 36148 ft | 460 kts | 183° |
| 2026-05-08 17:48 | 50.93763 | 10.21201 | 36139 ft | 456 kts | 183° |
| 2026-05-08 17:48 | 50.87495 | 10.21084 | 36131 ft | 447 kts | 183° |
| 2026-05-08 17:49 | 50.84413 | 10.20819 | 36126 ft | 441 kts | 194° |
| 2026-05-08 17:49 | 50.81548 | 10.19261 | 36151 ft | 433 kts | 211° |
| 2026-05-08 17:49 | 50.79103 | 10.16546 | 36147 ft | 427 kts | 224° |
| 2026-05-08 17:49 | 50.77195 | 10.13089 | 36115 ft | 410 kts | 239° |
| 2026-05-08 17:50 | 50.75857 | 10.09219 | 36139 ft | 394 kts | 244° |
| 2026-05-08 17:50 | 50.74671 | 10.05402 | 36119 ft | 381 kts | 245° |
| 2026-05-08 17:50 | 50.72358 | 9.97877 | 36149 ft | 384 kts | 244° |
| 2026-05-08 17:51 | 50.69946 | 9.90233 | 36149 ft | 394 kts | 244° |
| 2026-05-08 17:51 | 50.67456 | 9.82462 | 36136 ft | 399 kts | 244° |
| 2026-05-08 17:52 | 50.64940 | 9.74642 | 36131 ft | 401 kts | 244° |
| 2026-05-08 17:52 | 50.61586 | 9.67709 | 36140 ft | 402 kts | 220° |
| 2026-05-08 17:53 | 50.59258 | 9.65255 | 36122 ft | 404 kts | 207° |